Time;durP1;ratioP1;P1;durP2;ratioP2;P2;SDS_P1;SDS_P2;PMS_P1;PMS_P2;Temp;Humidity;BMP_temperature;BMP_pressure;BME280_temperature;BME280_humidity;BME280_pressure;Samples;Min_cycle;Max_cycle;Signal;HPM_P1;HPM_P2
2022/11/04 00:01:09;;;;;;;3.13;1.52;;;13.00;80.10;;;;;;9181798;19;20025;-66
2022/11/04 00:04:15;;;;;;;4.38;2.00;;;13.00;80.00;;;;;;9178841;19;20010;-67
2022/11/04 00:13:54;;;;;;;1.92;1.55;;;12.90;80.10;;;;;;9181832;19;20363;-66
2022/11/04 00:30:11;;;;;;;3.15;1.95;;;12.80;80.20;;;;;;9176978;19;20105;-66
2022/11/04 00:33:24;;;;;;;4.65;2.05;;;12.70;80.20;;;;;;9180986;19;20018;-66
2022/11/04 00:36:28;;;;;;;3.65;1.40;;;12.80;80.30;;;;;;9178278;19;20017;-66
2022/11/04 00:39:32;;;;;;;3.05;1.92;;;12.70;80.20;;;;;;9180634;19;20031;-65
2022/11/04 00:42:36;;;;;;;1.95;1.60;;;12.70;80.30;;;;;;9181253;19;20033;-65
2022/11/04 00:45:44;;;;;;;2.65;1.80;;;12.70;80.30;;;;;;9177368;19;20014;-66
2022/11/04 00:48:48;;;;;;;2.72;1.98;;;12.70;80.30;;;;;;9181687;19;20700;-66
2022/11/04 00:51:52;;;;;;;4.05;2.17;;;12.70;80.30;;;;;;9178350;19;20006;-65
2022/11/04 00:54:55;;;;;;;4.78;2.00;;;12.70;80.30;;;;;;9179135;19;20051;-66
2022/11/04 00:58:00;;;;;;;3.10;1.90;;;12.70;80.40;;;;;;9175661;19;20392;-66
2022/11/04 01:01:11;;;;;;;5.10;2.38;;;12.70;80.50;;;;;;9178281;19;20102;-66
2022/11/04 01:04:15;;;;;;;5.72;2.30;;;12.70;80.50;;;;;;9175800;19;20089;-67
2022/11/04 01:07:20;;;;;;;5.35;2.58;;;12.60;80.40;;;;;;9179243;19;20037;-66
2022/11/04 01:10:23;;;;;;;7.70;3.08;;;12.60;80.40;;;;;;9179303;19;20014;-66
2022/11/04 01:13:27;;;;;;;8.20;2.97;;;12.60;80.50;;;;;;9179533;19;20003;-67
2022/11/04 01:16:33;;;;;;;;;;;12.60;80.50;;;;;;9177215;19;20034;-66
2022/11/04 01:19:37;;;;;;;5.95;3.92;;;12.60;80.50;;;;;;9176542;19;19922;-66
2022/11/04 01:22:41;;;;;;;10.07;3.60;;;12.60;80.40;;;;;;9179484;19;20018;-66
2022/11/04 01:25:45;;;;;;;4.90;3.80;;;12.60;80.50;;;;;;9179373;19;20398;-66
2022/11/04 01:28:49;;;;;;;6.43;4.10;;;12.50;80.60;;;;;;9177667;19;20018;-66
2022/11/04 01:31:54;;;;;;;;;;;12.50;80.60;;;;;;9174974;19;20035;-65
2022/11/04 01:34:58;;;;;;;6.53;4.30;;;12.50;80.60;;;;;;9177896;19;19970;-65
2022/11/04 01:38:02;;;;;;;6.60;4.60;;;12.50;80.50;;;;;;9174847;19;20029;-66
2022/11/04 01:41:07;;;;;;;6.20;4.20;;;12.50;80.50;;;;;;9177667;19;20018;-66
2022/11/04 01:44:41;;;;;;;15.90;4.40;;;12.50;80.60;;;;;;9176840;19;20058;-66
2022/11/04 01:47:51;;;;;;;9.45;4.32;;;12.50;80.80;;;;;;9178902;19;20015;-66
2022/11/04 01:50:59;;;;;;;6.78;3.95;;;12.50;80.70;;;;;;9178913;19;20033;-66
2022/11/04 01:54:05;;;;;;;5.93;4.57;;;12.50;80.70;;;;;;9177298;19;20499;-67
2022/11/04 01:57:15;;;;;;;11.95;4.68;;;12.50;80.80;;;;;;9175464;19;20015;-65
2022/11/04 02:00:20;;;;;;;9.32;5.95;;;12.40;80.80;;;;;;9177081;19;20015;-66
2022/11/04 02:03:30;;;;;;;10.05;6.82;;;12.40;80.70;;;;;;9174855;19;20018;-66
2022/11/04 02:06:34;;;;;;;10.68;6.63;;;12.40;80.90;;;;;;9176735;19;20420;-66
2022/11/04 02:09:41;;;;;;;11.95;8.10;;;12.40;80.80;;;;;;9176497;19;20030;-66
2022/11/04 02:12:51;;;;;;;10.18;7.03;;;12.40;80.90;;;;;;9177349;19;20010;-66
2022/11/04 02:15:59;;;;;;;11.88;7.55;;;12.40;80.90;;;;;;9178381;19;20021;-66
2022/11/04 02:19:20;;;;;;;10.32;6.63;;;12.40;81.00;;;;;;9176670;19;20537;-65
2022/11/04 02:22:41;;;;;;;8.93;5.28;;;12.40;81.10;;;;;;9177368;19;20022;-65
2022/11/04 02:26:12;;;;;;;9.05;4.88;;;12.30;81.00;;;;;;9177299;19;20157;-67
2022/11/04 02:29:36;;;;;;;6.70;4.47;;;12.40;81.10;;;;;;9172959;19;20041;-66
2022/11/04 02:32:51;;;;;;;;;;;12.30;81.10;;;;;;9175340;19;20029;-65
2022/11/04 02:36:04;;;;;;;7.15;4.53;;;12.30;81.00;;;;;;9176933;19;19995;-65
2022/11/04 02:39:19;;;;;;;8.23;5.00;;;12.30;80.90;;;;;;9176996;19;20300;-65
2022/11/04 02:42:30;;;;;;;8.05;5.55;;;12.30;80.90;;;;;;9174518;19;20017;-66
2022/11/04 02:45:41;;;;;;;7.32;4.90;;;12.20;80.90;;;;;;9174466;19;20358;-66
2022/11/04 02:48:50;;;;;;;6.65;4.80;;;12.20;81.00;;;;;;9174868;19;20014;-66
2022/11/04 02:52:00;;;;;;;8.52;4.95;;;12.20;81.10;;;;;;9176386;19;20037;-66
2022/11/04 02:55:09;;;;;;;8.70;4.80;;;12.20;81.10;;;;;;9176067;19;20071;-66
2022/11/04 02:58:17;;;;;;;8.05;4.18;;;12.10;81.00;;;;;;9171931;19;20014;-66
2022/11/04 03:01:27;;;;;;;4.20;3.33;;;12.10;81.00;;;;;;9174262;19;20011;-66
2022/11/04 03:04:35;;;;;;;4.60;3.20;;;12.10;81.10;;;;;;9173893;19;20052;-66
2022/11/04 03:07:42;;;;;;;3.97;2.50;;;12.10;81.00;;;;;;9176282;19;20102;-65
2022/11/04 03:10:51;;;;;;;4.85;2.97;;;12.00;81.00;;;;;;9174824;19;20017;-67
2022/11/04 03:14:00;;;;;;;5.22;3.17;;;12.00;81.00;;;;;;9175054;19;20411;-67
2022/11/04 03:17:09;;;;;;;5.38;4.15;;;12.00;81.00;;;;;;9173447;19;20019;-66
2022/11/04 03:20:19;;;;;;;6.25;3.42;;;11.90;81.00;;;;;;9175586;19;20019;-67
2022/11/04 03:23:23;;;;;;;8.75;4.00;;;11.90;81.00;;;;;;9174505;19;20125;-67
2022/11/04 03:26:31;;;;;;;7.18;4.60;;;11.90;81.00;;;;;;9174044;19;20018;-65
2022/11/04 03:29:40;;;;;;;7.75;4.30;;;11.80;81.00;;;;;;9169080;19;20021;-66
2022/11/04 03:32:54;;;;;;;8.30;5.75;;;11.80;81.60;;;;;;9174418;19;20015;-66
2022/11/04 03:35:58;;;;;;;7.72;5.13;;;11.80;81.10;;;;;;9172550;19;20015;-66
2022/11/04 03:39:02;;;;;;;10.65;5.10;;;11.80;81.10;;;;;;9172515;19;20019;-66
2022/11/04 03:42:18;;;;;;;9.25;6.07;;;11.80;81.10;;;;;;9172819;19;20010;-67
2022/11/04 03:45:22;;;;;;;10.63;6.13;;;11.70;81.20;;;;;;9182907;19;20014;-66
2022/11/04 03:48:28;;;;;;;8.40;6.22;;;11.70;81.70;;;;;;9182754;19;20018;-67
2022/11/04 03:51:33;;;;;;;13.85;7.65;;;11.70;81.10;;;;;;9180914;19;20014;-66
2022/11/04 03:54:36;;;;;;;12.02;8.27;;;11.70;81.10;;;;;;9181348;19;20033;-66
2022/11/04 03:57:47;;;;;;;;;;;11.70;81.20;;;;;;9181689;19;20082;-66
2022/11/04 04:01:01;;;;;;;14.50;9.00;;;11.70;81.20;;;;;;9180095;19;20363;-66
2022/11/04 04:04:18;;;;;;;13.43;9.27;;;11.60;81.00;;;;;;9181836;19;20024;-67
2022/11/04 04:07:27;;;;;;;17.77;9.55;;;11.60;81.10;;;;;;9180346;19;20405;-65
2022/11/04 04:10:42;;;;;;;17.30;9.45;;;11.60;81.10;;;;;;9181377;19;20035;-65
2022/11/04 04:13:49;;;;;;;;;;;11.60;81.10;;;;;;9181365;19;20015;-65
2022/11/04 04:16:55;;;;;;;14.38;9.27;;;11.60;81.10;;;;;;9179231;19;19926;-67
2022/11/04 04:20:04;;;;;;;14.43;9.70;;;11.60;81.00;;;;;;9180930;19;20491;-67
2022/11/04 04:29:51;;;;;;;16.00;10.13;;;11.50;81.20;;;;;;9177066;19;20471;-65
2022/11/04 04:32:58;;;;;;;17.92;10.98;;;11.50;81.20;;;;;;9179339;19;20014;-67
2022/11/04 04:36:07;;;;;;;18.98;9.60;;;11.50;81.20;;;;;;9180971;19;20014;-67
2022/11/04 04:45:53;;;;;;;16.30;9.75;;;11.40;81.20;;;;;;9179732;19;20050;-66
2022/11/04 04:49:04;;;;;;;18.30;9.73;;;11.40;81.30;;;;;;9181303;19;20031;-67
2022/11/04 04:52:10;;;;;;;16.60;10.10;;;11.40;81.30;;;;;;9179531;19;20066;-66
2022/11/04 04:55:15;;;;;;;15.20;9.52;;;11.40;81.30;;;;;;9178974;19;20345;-66
2022/11/04 04:58:19;;;;;;;16.55;9.73;;;11.30;81.30;;;;;;9177821;19;20455;-65
2022/11/04 05:01:24;;;;;;;19.27;9.75;;;11.30;81.40;;;;;;9180343;19;20331;-66
2022/11/04 05:04:28;;;;;;;16.73;9.57;;;11.30;81.30;;;;;;9176193;19;20043;-66
2022/11/04 05:07:34;;;;;;;16.38;10.65;;;11.30;81.40;;;;;;9178302;19;20029;-67
2022/11/04 05:10:38;;;;;;;16.52;10.45;;;11.30;81.40;;;;;;9177608;19;20015;-65
2022/11/04 05:13:41;;;;;;;;;;;11.30;81.40;;;;;;9178751;19;20036;-65
2022/11/04 05:16:45;;;;;;;19.67;9.52;;;11.30;81.30;;;;;;9176300;19;19982;-66
2022/11/04 05:19:49;;;;;;;16.92;10.18;;;11.20;81.20;;;;;;9180219;19;20301;-66
2022/11/04 05:22:55;;;;;;;16.55;11.10;;;11.20;81.20;;;;;;9177136;19;20045;-67
2022/11/04 05:25:59;;;;;;;21.38;12.13;;;11.20;81.30;;;;;;9178934;19;20033;-66
2022/11/04 05:29:03;;;;;;;;;;;11.10;81.30;;;;;;9180554;19;20026;-65
2022/11/04 05:32:07;;;;;;;20.40;12.75;;;11.10;81.30;;;;;;9174331;19;19911;-66
2022/11/04 05:35:11;;;;;;;24.83;13.18;;;11.10;81.20;;;;;;9178869;19;20413;-67
2022/11/04 05:38:17;;;;;;;;;;;11.10;81.30;;;;;;9175059;19;20018;-65
2022/11/04 05:41:26;;;;;;;24.08;14.95;;;11.00;81.30;;;;;;9179247;19;20011;-67
2022/11/04 05:44:30;;;;;;;25.25;15.18;;;11.00;81.20;;;;;;9178551;19;20347;-65
2022/11/04 05:47:34;;;;;;;28.63;17.52;;;11.00;81.40;;;;;;9178246;19;20034;-66
2022/11/04 05:50:37;;;;;;;29.10;17.45;;;11.00;81.40;;;;;;9177924;19;20509;-66
2022/11/04 05:53:43;;;;;;;30.60;18.35;;;10.90;81.40;;;;;;9177261;19;20045;-65
2022/11/04 05:56:47;;;;;;;26.65;16.95;;;10.90;81.50;;;;;;9175079;19;20018;-67
2022/11/04 05:59:51;;;;;;;26.23;17.70;;;10.90;81.50;;;;;;9177038;19;20047;-65
2022/11/04 06:02:56;;;;;;;;;;;10.90;81.50;;;;;;9176103;19;20041;-67
2022/11/04 06:06:00;;;;;;;;;;;10.90;81.50;;;;;;9174541;19;19950;-65
2022/11/04 06:09:06;;;;;;;34.05;20.08;;;10.80;81.30;;;;;;9170219;19;19918;-66
2022/11/04 06:12:13;;;;;;;32.33;18.85;;;10.80;81.30;;;;;;9171913;19;20051;-66
2022/11/04 06:15:18;;;;;;;32.22;20.35;;;10.80;81.40;;;;;;9168858;19;20022;-67
2022/11/04 06:18:21;;;;;;;40.42;21.83;;;10.80;81.50;;;;;;9166736;19;20628;-67
2022/11/04 06:21:27;;;;;;;38.63;22.52;;;10.70;81.60;;;;;;9169985;19;20042;-66
2022/11/04 06:24:33;;;;;;;40.03;21.77;;;10.70;81.60;;;;;;9162405;19;20018;-69
2022/11/04 06:27:37;;;;;;;33.80;20.70;;;10.70;81.60;;;;;;9174027;19;20014;-66
2022/11/04 06:30:41;;;;;;;35.63;21.95;;;10.70;81.60;;;;;;9172791;19;20022;-66
2022/11/04 06:33:44;;;;;;;38.00;22.90;;;10.70;81.70;;;;;;9177345;19;20023;-65
2022/11/04 06:36:49;;;;;;;40.20;24.17;;;10.70;81.70;;;;;;9172222;19;20015;-67
2022/11/04 06:39:56;;;;;;;37.13;21.45;;;10.70;81.70;;;;;;9176124;19;20021;-66
2022/11/04 06:43:00;;;;;;;39.78;23.40;;;10.70;81.80;;;;;;9176464;19;20038;-67
2022/11/04 06:46:04;;;;;;;43.38;24.17;;;10.60;81.80;;;;;;9174968;19;20122;-67
2022/11/04 06:49:12;;;;;;;42.25;24.05;;;10.60;81.90;;;;;;9175267;19;20018;-66
2022/11/04 06:52:16;;;;;;;38.55;23.33;;;10.60;82.00;;;;;;9174195;19;20019;-65
2022/11/04 06:55:21;;;;;;;40.92;24.67;;;10.60;82.00;;;;;;9175340;19;20014;-66
2022/11/04 06:58:26;;;;;;;38.75;23.63;;;10.60;82.00;;;;;;9174077;19;20147;-67
2022/11/04 07:01:31;;;;;;;40.95;22.50;;;10.70;82.10;;;;;;9174143;19;20120;-65
2022/11/04 07:04:35;;;;;;;41.15;23.52;;;10.70;82.10;;;;;;9170151;19;20044;-66
2022/11/04 07:07:39;;;;;;;;;;;10.70;82.20;;;;;;9175775;19;20018;-66
2022/11/04 07:10:45;;;;;;;38.30;20.80;;;10.70;82.20;;;;;;9175590;19;19923;-65
2022/11/04 07:13:49;;;;;;;40.20;21.85;;;10.70;82.00;;;;;;9173888;19;20036;-66
2022/11/04 07:16:53;;;;;;;36.15;20.23;;;10.70;82.10;;;;;;9172468;19;20015;-66
2022/11/04 07:19:57;;;;;;;35.35;21.80;;;10.70;82.10;;;;;;9179678;19;20487;-65
2022/11/04 07:23:01;;;;;;;35.88;22.02;;;10.70;82.20;;;;;;9181436;19;20002;-66
2022/11/04 07:26:08;;;;;;;39.47;20.75;;;10.70;82.20;;;;;;9183823;19;20014;-65
2022/11/04 07:29:12;;;;;;;35.78;20.77;;;10.70;82.30;;;;;;9178583;19;20018;-66
2022/11/04 07:32:16;;;;;;;42.15;20.58;;;10.70;82.30;;;;;;9183509;19;20040;-66
2022/11/04 07:35:20;;;;;;;35.85;19.27;;;10.70;82.30;;;;;;9181005;19;20040;-65
2022/11/04 07:38:24;;;;;;;35.30;18.60;;;10.70;82.30;;;;;;9179080;19;20038;-65
2022/11/04 07:41:30;;;;;;;36.08;18.60;;;10.80;82.40;;;;;;9182614;19;20014;-65
2022/11/04 07:44:34;;;;;;;32.88;18.58;;;10.80;82.40;;;;;;9181821;19;20010;-66
2022/11/04 07:47:38;;;;;;;31.75;16.80;;;10.80;82.40;;;;;;9182274;19;20635;-66
2022/11/04 07:50:42;;;;;;;;;;;10.80;82.50;;;;;;9182054;19;20774;-66
2022/11/04 07:53:46;;;;;;;30.95;15.90;;;10.80;82.40;;;;;;9182522;19;19918;-66
2022/11/04 07:56:52;;;;;;;32.95;15.40;;;10.80;82.20;;;;;;9182580;19;20502;-65
2022/11/04 07:59:56;;;;;;;26.20;15.32;;;10.80;82.30;;;;;;9179200;19;20015;-66
2022/11/04 08:03:00;;;;;;;;;;;10.80;82.30;;;;;;9176142;19;20041;-65
2022/11/04 08:06:06;;;;;;;26.20;14.80;;;10.80;82.30;;;;;;9176608;19;19919;-66
2022/11/04 08:09:10;;;;;;;28.45;14.50;;;10.90;82.30;;;;;;9176946;19;20462;-69
2022/11/04 08:12:19;;;;;;;34.67;16.92;;;10.90;82.40;;;;;;9176064;19;20876;-66
2022/11/04 08:15:23;;;;;;;27.85;14.95;;;10.90;82.40;;;;;;9171938;19;20474;-66
2022/11/04 08:18:27;;;;;;;;;;;10.90;82.50;;;;;;9174830;19;20028;-66
2022/11/04 08:21:32;;;;;;;27.13;13.82;;;10.90;82.50;;;;;;9175460;19;19915;-67
2022/11/04 08:24:36;;;;;;;37.33;15.95;;;11.00;82.30;;;;;;9177915;19;20043;-67
2022/11/04 08:27:42;;;;;;;39.28;14.82;;;11.00;82.50;;;;;;9178786;19;20038;-66
2022/11/04 08:30:57;;;;;;;28.30;14.77;;;11.00;82.60;;;;;;9173821;19;20059;-66
2022/11/04 08:34:02;;;;;;;36.28;15.15;;;11.10;82.80;;;;;;9178123;19;20353;-66
2022/11/04 08:37:05;;;;;;;;;;;11.10;82.70;;;;;;9181179;19;20038;-66
2022/11/04 08:40:10;;;;;;;37.85;14.48;;;11.10;82.60;;;;;;9179029;19;19915;-66
2022/11/04 08:43:16;;;;;;;31.02;14.85;;;11.20;82.50;;;;;;9180111;19;20047;-65
2022/11/04 08:46:20;;;;;;;28.88;13.50;;;11.30;82.70;;;;;;9180323;19;20010;-66
2022/11/04 08:49:24;;;;;;;27.83;13.57;;;11.30;82.60;;;;;;9180531;19;20045;-66
2022/11/04 08:52:28;;;;;;;28.55;14.15;;;11.40;82.70;;;;;;9177433;19;20051;-67
2022/11/04 08:55:33;;;;;;;25.60;13.02;;;11.40;82.60;;;;;;9178584;19;20022;-65
2022/11/04 08:58:38;;;;;;;29.40;12.90;;;11.40;82.60;;;;;;9175733;19;20014;-66
2022/11/04 09:01:45;;;;;;;26.45;12.75;;;11.50;82.60;;;;;;9179947;19;20361;-66
2022/11/04 09:04:48;;;;;;;29.65;13.10;;;11.50;82.60;;;;;;9176361;19;20015;-66
2022/11/04 09:07:52;;;;;;;24.90;12.88;;;11.60;82.60;;;;;;9180886;19;20023;-66
2022/11/04 09:10:56;;;;;;;;;;;11.70;82.60;;;;;;9180388;19;20022;-67
2022/11/04 09:14:04;;;;;;;34.20;13.68;;;11.70;82.70;;;;;;9179384;19;19918;-65
2022/11/04 09:17:08;;;;;;;23.23;13.20;;;11.70;82.50;;;;;;9179105;19;20011;-67
2022/11/04 09:20:12;;;;;;;22.27;13.02;;;11.80;82.60;;;;;;9174512;19;20015;-66
2022/11/04 09:23:16;;;;;;;21.95;12.15;;;11.80;82.60;;;;;;9175576;19;20037;-66
2022/11/04 09:26:21;;;;;;;28.48;11.68;;;11.90;82.60;;;;;;9176531;19;20021;-67
2022/11/04 09:29:27;;;;;;;27.27;12.00;;;11.90;82.50;;;;;;9172705;19;20064;-67
2022/11/04 09:32:30;;;;;;;31.65;11.60;;;12.00;82.50;;;;;;9173138;19;20043;-66
2022/11/04 09:35:34;;;;;;;;;;;12.10;82.50;;;;;;9175878;19;20017;-67
2022/11/04 09:38:39;;;;;;;25.73;13.02;;;12.10;82.80;;;;;;9172708;19;19990;-66
2022/11/04 09:42:00;;;;;;;24.65;11.60;;;12.10;82.30;;;;;;9174582;19;20033;-66
2022/11/04 09:45:10;;;;;;;23.20;11.70;;;12.20;82.60;;;;;;9173639;19;20047;-65
2022/11/04 09:48:33;;;;;;;18.38;11.15;;;12.20;82.50;;;;;;9173769;19;20037;-67
2022/11/04 09:51:40;;;;;;;23.75;11.68;;;12.30;82.40;;;;;;9174186;19;20050;-65
2022/11/04 09:55:04;;;;;;;26.40;11.27;;;12.30;82.40;;;;;;9163056;19;20022;-67
2022/11/04 09:58:13;;;;;;;22.42;10.73;;;12.40;82.50;;;;;;9168348;19;20471;-67
2022/11/04 10:01:28;;;;;;;24.25;10.80;;;12.40;82.40;;;;;;9175036;19;20021;-67
2022/11/04 10:04:47;;;;;;;25.92;10.70;;;12.50;82.50;;;;;;9172557;19;20022;-65
2022/11/04 10:08:18;;;;;;;21.67;10.43;;;12.50;82.40;;;;;;9175031;19;20767;-66
2022/11/04 10:11:30;;;;;;;25.13;9.98;;;12.60;82.40;;;;;;9174136;19;20042;-65
2022/11/04 10:15:03;;;;;;;17.63;9.10;;;12.60;82.30;;;;;;9172932;19;20853;-68
2022/11/04 10:18:21;;;;;;;20.05;9.00;;;12.70;82.30;;;;;;9172916;19;20489;-68
2022/11/04 10:21:35;;;;;;;24.23;9.57;;;12.70;82.20;;;;;;9171879;19;20026;-66
2022/11/04 10:24:43;;;;;;;;;;;12.70;82.20;;;;;;9175530;19;20053;-66
2022/11/04 10:27:49;;;;;;;19.83;9.65;;;12.80;82.20;;;;;;9176124;19;19925;-67
2022/11/04 10:30:54;;;;;;;20.45;9.40;;;12.80;82.10;;;;;;9170678;19;20022;-65
2022/11/04 10:34:08;;;;;;;20.05;9.57;;;12.90;82.20;;;;;;9175266;19;20030;-67
2022/11/04 10:37:13;;;;;;;19.20;9.30;;;12.90;82.10;;;;;;9175613;19;20024;-65
2022/11/04 10:40:24;;;;;;;26.55;9.45;;;13.00;82.10;;;;;;9172862;19;20040;-66
2022/11/04 10:43:32;;;;;;;23.30;9.43;;;13.00;82.60;;;;;;9174043;19;20026;-65
2022/11/04 10:46:45;;;;;;;19.80;10.02;;;13.00;82.00;;;;;;9174134;19;20553;-65
2022/11/04 10:50:04;;;;;;;17.08;8.52;;;13.10;82.00;;;;;;9175080;19;20044;-65
2022/11/04 10:53:30;;;;;;;15.88;8.85;;;13.10;81.90;;;;;;9180882;19;20398;-65
2022/11/04 10:56:38;;;;;;;19.10;8.68;;;13.20;81.90;;;;;;9182121;19;20022;-65
2022/11/04 10:59:52;;;;;;;21.38;8.68;;;13.20;81.90;;;;;;9180671;19;20008;-66
2022/11/04 11:02:56;;;;;;;18.23;9.27;;;13.20;81.90;;;;;;9181720;19;20036;-66
2022/11/04 11:06:23;;;;;;;20.38;8.57;;;13.30;82.00;;;;;;9183211;19;20105;-67
2022/11/04 11:09:29;;;;;;;19.40;8.20;;;13.40;82.00;;;;;;9180331;19;20094;-67
2022/11/04 11:12:39;;;;;;;17.30;7.60;;;13.40;81.90;;;;;;9181734;19;20100;-65
2022/11/04 11:16:09;;;;;;;18.08;9.35;;;13.50;82.50;;;;;;9181103;19;20025;-66
2022/11/04 11:19:17;;;;;;;;;;;13.60;81.80;;;;;;9178348;19;20090;-65
2022/11/04 11:22:37;;;;;;;17.50;7.93;;;13.60;81.70;;;;;;9182319;19;19922;-67
2022/11/04 11:25:46;;;;;;;18.10;7.78;;;13.70;81.60;;;;;;9183712;19;20474;-65
2022/11/04 11:28:55;;;;;;;15.35;8.63;;;13.80;81.50;;;;;;9180825;19;20018;-65
2022/11/04 11:32:03;;;;;;;20.67;8.57;;;13.80;81.40;;;;;;9176603;19;20014;-65
2022/11/04 11:35:16;;;;;;;16.13;8.10;;;13.90;81.30;;;;;;9180468;19;20010;-66
2022/11/04 11:38:24;;;;;;;20.33;9.45;;;14.00;81.20;;;;;;9178288;19;20439;-65
2022/11/04 11:41:38;;;;;;;18.27;8.02;;;14.00;81.10;;;;;;9178409;19;20015;-66
2022/11/04 11:44:50;;;;;;;13.27;7.15;;;14.00;81.10;;;;;;9177212;19;20022;-65
2022/11/04 11:47:55;;;;;;;17.20;7.95;;;14.00;81.00;;;;;;9176919;19;20028;-66
2022/11/04 11:51:00;;;;;;;14.70;7.35;;;14.10;81.00;;;;;;9178391;19;20018;-67
2022/11/04 11:54:34;;;;;;;13.10;7.53;;;14.10;81.00;;;;;;9179683;19;20437;-66
2022/11/04 11:57:49;;;;;;;14.73;8.05;;;14.10;80.90;;;;;;9178602;19;20031;-65
2022/11/04 12:01:18;;;;;;;14.45;7.28;;;14.10;80.90;;;;;;9179745;19;20022;-65
2022/11/04 12:04:28;;;;;;;22.83;7.85;;;14.20;80.90;;;;;;9178771;19;20039;-65
2022/11/04 12:07:59;;;;;;;15.50;7.97;;;14.20;80.80;;;;;;9179660;19;20007;-66
2022/11/04 12:11:30;;;;;;;15.18;6.38;;;14.20;80.80;;;;;;9180000;19;20014;-66
2022/11/04 12:14:49;;;;;;;12.57;6.82;;;14.20;81.20;;;;;;9178932;19;20018;-65
2022/11/04 12:18:07;;;;;;;15.55;6.78;;;14.20;80.50;;;;;;9178819;19;20018;-66
2022/11/04 12:21:15;;;;;;;14.82;6.68;;;14.20;80.50;;;;;;9181788;19;20378;-67
2022/11/04 12:24:29;;;;;;;14.40;6.97;;;14.20;80.50;;;;;;9179862;19;20105;-65
2022/11/04 12:27:42;;;;;;;14.48;6.75;;;14.20;80.40;;;;;;9179573;19;20023;-67
2022/11/04 12:30:59;;;;;;;17.17;7.53;;;14.30;80.40;;;;;;9176648;19;20015;-65
2022/11/04 12:34:15;;;;;;;16.67;6.90;;;14.30;80.30;;;;;;9180124;19;20022;-66
2022/11/04 12:37:31;;;;;;;11.05;6.55;;;14.20;80.30;;;;;;9178761;19;20014;-65
2022/11/04 12:40:42;;;;;;;16.70;6.55;;;14.30;80.20;;;;;;9181537;19;20033;-66
2022/11/04 12:43:56;;;;;;;12.00;6.93;;;14.30;80.10;;;;;;9179900;19;20023;-66
2022/11/04 12:47:14;;;;;;;14.70;6.15;;;14.30;80.00;;;;;;9179955;19;20045;-66
2022/11/04 12:50:51;;;;;;;11.02;7.07;;;14.30;79.90;;;;;;9179648;19;20010;-66
2022/11/04 12:54:23;;;;;;;20.27;9.00;;;14.20;79.90;;;;;;9180717;19;20015;-66
2022/11/04 12:57:35;;;;;;;15.40;6.65;;;14.20;79.90;;;;;;9175611;19;20029;-66
2022/11/04 13:00:42;;;;;;;12.43;6.10;;;14.20;79.90;;;;;;9178736;19;20032;-65
2022/11/04 13:03:54;;;;;;;14.45;6.72;;;14.20;79.80;;;;;;9179252;19;20022;-66
2022/11/04 13:07:02;;;;;;;15.38;6.72;;;14.20;79.80;;;;;;9177603;19;20384;-67
2022/11/04 13:10:16;;;;;;;14.50;7.35;;;14.20;79.80;;;;;;9177813;19;20094;-67
2022/11/04 13:13:24;;;;;;;;;;;14.20;79.70;;;;;;9179521;19;20607;-66
2022/11/04 13:16:31;;;;;;;15.48;6.80;;;14.10;79.70;;;;;;9174332;19;19926;-66
2022/11/04 13:19:38;;;;;;;13.15;6.90;;;14.10;79.80;;;;;;9175166;19;20021;-67
2022/11/04 13:22:45;;;;;;;17.83;7.32;;;14.10;79.70;;;;;;9178277;19;20050;-66
2022/11/04 13:25:50;;;;;;;12.35;6.38;;;14.00;79.70;;;;;;9177051;19;20019;-65
2022/11/04 13:29:00;;;;;;;11.10;6.53;;;14.00;79.70;;;;;;9179804;19;20017;-65
2022/11/04 13:32:24;;;;;;;17.05;7.60;;;14.00;79.70;;;;;;9178067;19;20482;-66
2022/11/04 13:35:34;;;;;;;16.42;7.55;;;14.00;79.70;;;;;;9178756;19;20033;-66
2022/11/04 13:38:41;;;;;;;12.43;7.50;;;13.90;79.70;;;;;;9175748;19;20351;-66
2022/11/04 13:42:18;;;;;;;11.00;6.95;;;13.90;79.70;;;;;;9176068;19;20028;-65
2022/11/04 13:45:22;;;;;;;12.73;7.00;;;13.90;79.70;;;;;;9178089;19;20019;-65
2022/11/04 13:48:28;;;;;;;;;;;13.90;79.70;;;;;;9179416;19;20489;-66
2022/11/04 13:51:37;;;;;;;17.08;7.57;;;13.90;79.70;;;;;;9176972;19;19941;-66
2022/11/04 13:54:45;;;;;;;11.73;7.75;;;13.90;79.70;;;;;;9176911;19;20537;-66
2022/11/04 13:57:53;;;;;;;16.27;7.13;;;13.80;79.60;;;;;;9176345;19;20014;-66
2022/11/04 14:01:12;;;;;;;15.15;8.27;;;13.80;79.70;;;;;;9174962;19;20377;-66
2022/11/04 14:04:33;;;;;;;13.70;8.10;;;13.80;79.60;;;;;;9174601;19;20022;-67
2022/11/04 14:08:09;;;;;;;16.27;9.13;;;13.80;79.60;;;;;;9178518;19;20027;-66
2022/11/04 14:11:14;;;;;;;21.05;9.57;;;13.70;79.60;;;;;;9175236;19;20040;-66
2022/11/04 14:14:20;;;;;;;19.88;9.48;;;13.70;79.60;;;;;;9174694;19;20611;-66
2022/11/04 14:17:54;;;;;;;16.65;8.98;;;13.70;79.60;;;;;;9175643;19;20007;-65
2022/11/04 14:21:09;;;;;;;17.23;9.53;;;13.70;79.60;;;;;;9171551;19;20018;-66
2022/11/04 14:24:14;;;;;;;18.95;9.23;;;13.70;79.70;;;;;;9171789;19;20018;-67
2022/11/04 14:27:35;;;;;;;18.52;8.68;;;13.60;79.60;;;;;;9168437;19;20045;-67
2022/11/04 14:30:46;;;;;;;16.05;9.40;;;13.60;79.60;;;;;;9166765;19;20021;-67
2022/11/04 14:33:54;;;;;;;15.88;8.75;;;13.60;79.60;;;;;;9168941;19;20466;-66
2022/11/04 14:37:02;;;;;;;16.50;8.93;;;13.50;79.60;;;;;;9170526;19;20017;-65
2022/11/04 14:40:25;;;;;;;15.82;8.30;;;13.50;79.60;;;;;;9165415;19;20019;-66
2022/11/04 14:43:34;;;;;;;15.80;8.63;;;13.50;79.70;;;;;;9168961;19;20018;-66
2022/11/04 14:46:45;;;;;;;15.43;9.02;;;13.50;79.70;;;;;;9169447;19;20035;-66
2022/11/04 14:49:51;;;;;;;18.77;8.75;;;13.50;79.70;;;;;;9166994;19;20030;-66
2022/11/04 14:53:02;;;;;;;14.73;8.55;;;13.50;79.80;;;;;;9169937;19;20057;-66
2022/11/04 14:56:16;;;;;;;17.65;9.25;;;13.40;79.70;;;;;;9169470;19;20019;-67
2022/11/04 14:59:28;;;;;;;15.55;8.63;;;13.40;79.80;;;;;;9165247;19;20562;-66
2022/11/04 15:02:34;;;;;;;17.10;9.07;;;13.40;79.80;;;;;;9168473;19;20006;-66
2022/11/04 15:05:39;;;;;;;17.33;8.27;;;13.40;79.80;;;;;;9165998;19;20010;-66
2022/11/04 15:08:46;;;;;;;15.98;9.07;;;13.40;79.90;;;;;;9167420;19;20047;-67
2022/11/04 15:15:35;;;;;;;20.67;9.75;;;13.40;80.00;;;;;;9167703;19;20019;-65
2022/11/04 15:18:40;;;;;;;15.38;9.43;;;13.40;80.00;;;;;;9166565;19;20019;-65
2022/11/04 15:21:49;;;;;;;20.50;8.00;;;13.40;80.00;;;;;;9167789;19;20018;-65
2022/11/04 15:24:55;;;;;;;14.50;7.13;;;13.40;80.00;;;;;;9167979;19;20015;-66
2022/11/04 15:27:59;;;;;;;13.40;6.85;;;13.40;80.00;;;;;;9167004;19;20010;-65
2022/11/04 15:31:15;;;;;;;12.60;6.20;;;13.30;79.90;;;;;;9163379;19;20018;-65
2022/11/04 15:34:19;;;;;;;15.18;7.20;;;13.30;80.00;;;;;;9168640;19;20375;-65
2022/11/04 15:37:24;;;;;;;;;;;13.30;79.90;;;;;;9167932;19;20888;-66
2022/11/04 15:40:30;;;;;;;;;;;13.30;79.90;;;;;;9171501;19;19914;-66
2022/11/04 15:43:34;;;;;;;11.55;5.68;;;13.30;79.80;;;;;;9175898;19;19919;-66
2022/11/04 15:46:38;;;;;;;12.25;6.05;;;13.30;79.80;;;;;;9172270;19;20025;-67
2022/11/04 15:49:42;;;;;;;;;;;13.30;79.90;;;;;;9172905;19;20763;-67
2022/11/04 15:52:51;;;;;;;9.90;4.70;;;13.20;79.90;;;;;;9172242;19;20403;-65
2022/11/04 15:55:59;;;;;;;14.88;5.93;;;13.20;79.90;;;;;;9174920;19;20473;-67
2022/11/04 15:59:03;;;;;;;12.77;6.97;;;13.20;79.90;;;;;;9174014;19;20463;-66
2022/11/04 16:02:23;;;;;;;13.73;6.15;;;13.20;79.90;;;;;;9173032;19;20038;-66
2022/11/04 16:05:29;;;;;;;19.15;5.63;;;13.10;79.90;;;;;;9170657;19;20018;-66
2022/11/04 16:08:33;;;;;;;12.98;5.40;;;13.10;79.90;;;;;;9174519;19;20014;-66
2022/11/04 16:11:40;;;;;;;13.40;6.40;;;13.10;79.90;;;;;;9174181;19;20029;-65
2022/11/04 16:14:51;;;;;;;13.10;6.13;;;13.00;80.00;;;;;;9151659;19;20014;-66
2022/11/04 16:17:55;;;;;;;11.65;6.13;;;13.00;79.90;;;;;;9165968;19;20140;-66
2022/11/04 16:21:03;;;;;;;9.60;6.03;;;13.00;80.00;;;;;;9168195;19;20014;-65
2022/11/04 16:24:09;;;;;;;15.57;6.50;;;12.90;80.00;;;;;;9167769;19;20026;-66
2022/11/04 16:27:19;;;;;;;13.82;6.78;;;12.90;80.00;;;;;;9173698;19;20101;-66
2022/11/04 16:30:25;;;;;;;10.82;6.50;;;12.90;80.10;;;;;;9169748;19;20022;-66
2022/11/04 16:33:29;;;;;;;12.63;6.95;;;12.80;80.00;;;;;;9172891;19;20832;-66
2022/11/04 16:36:33;;;;;;;17.63;7.07;;;12.80;80.10;;;;;;9173392;19;20030;-67
2022/11/04 16:39:39;;;;;;;16.55;7.68;;;12.80;80.10;;;;;;9173444;19;20011;-66
2022/11/04 16:42:46;;;;;;;15.95;7.85;;;12.80;80.10;;;;;;9173848;19;20014;-65
2022/11/04 16:45:51;;;;;;;14.90;7.70;;;12.70;80.20;;;;;;9174160;19;20057;-66
2022/11/04 16:48:57;;;;;;;18.38;8.13;;;12.70;80.20;;;;;;9173020;19;20022;-66
2022/11/04 16:52:03;;;;;;;14.85;8.77;;;12.70;80.20;;;;;;9172705;19;20020;-66
2022/11/04 16:55:08;;;;;;;13.48;7.47;;;12.60;80.30;;;;;;9173266;19;20018;-66